sensor_id;sensor_type;location;lat;lon;timestamp;P1;durP1;ratioP1;P2;durP2;ratioP2
38909;SDS011;24676;51.360;12.354;2023-05-07T00:55:43;7.38;;;4.30;;
38909;SDS011;24676;51.360;12.354;2023-05-07T00:58:28;7.40;;;4.40;;
38909;SDS011;24676;51.360;12.354;2023-05-07T01:01:12;6.10;;;3.95;;
38909;SDS011;24676;51.360;12.354;2023-05-07T01:03:57;9.07;;;4.75;;
38909;SDS011;24676;51.360;12.354;2023-05-07T01:06:41;9.00;;;5.90;;
38909;SDS011;24676;51.360;12.354;2023-05-07T01:09:26;6.75;;;4.28;;
38909;SDS011;24676;51.360;12.354;2023-05-07T01:12:11;8.10;;;5.07;;
38909;SDS011;24676;51.360;12.354;2023-05-07T01:14:57;8.55;;;5.25;;
38909;SDS011;24676;51.360;12.354;2023-05-07T01:17:41;7.63;;;3.13;;
38909;SDS011;24676;51.360;12.354;2023-05-07T01:20:27;8.98;;;5.63;;
38909;SDS011;24676;51.360;12.354;2023-05-07T01:23:11;5.30;;;3.83;;
38909;SDS011;24676;51.360;12.354;2023-05-07T01:25:56;6.90;;;3.95;;
38909;SDS011;24676;51.360;12.354;2023-05-07T01:28:40;10.20;;;5.63;;
38909;SDS011;24676;51.360;12.354;2023-05-07T03:31:55;8.00;;;4.95;;
38909;SDS011;24676;51.360;12.354;2023-05-07T03:34:39;13.15;;;6.72;;
38909;SDS011;24676;51.360;12.354;2023-05-07T03:37:23;9.27;;;6.60;;
38909;SDS011;24676;51.360;12.354;2023-05-07T03:40:07;11.52;;;7.68;;
38909;SDS011;24676;51.360;12.354;2023-05-07T03:42:53;14.18;;;7.13;;
38909;SDS011;24676;51.360;12.354;2023-05-07T03:45:38;12.48;;;6.70;;
38909;SDS011;24676;51.360;12.354;2023-05-07T03:48:22;10.32;;;6.85;;
38909;SDS011;24676;51.360;12.354;2023-05-07T03:51:07;11.68;;;6.50;;
38909;SDS011;24676;51.360;12.354;2023-05-07T03:53:51;12.68;;;7.25;;
38909;SDS011;24676;51.360;12.354;2023-05-07T03:56:40;7.75;;;5.25;;
38909;SDS011;24676;51.360;12.354;2023-05-07T03:59:24;8.57;;;4.72;;
38909;SDS011;24676;51.360;12.354;2023-05-07T04:02:08;10.20;;;6.13;;
38909;SDS011;24676;51.360;12.354;2023-05-07T04:04:53;9.60;;;5.80;;
38909;SDS011;24676;51.360;12.354;2023-05-07T04:07:37;9.15;;;6.05;;
38909;SDS011;24676;51.360;12.354;2023-05-07T04:10:24;9.70;;;6.32;;
38909;SDS011;24676;51.360;12.354;2023-05-07T04:13:08;12.20;;;7.38;;
38909;SDS011;24676;51.360;12.354;2023-05-07T04:15:53;10.88;;;5.95;;
38909;SDS011;24676;51.360;12.354;2023-05-07T04:18:38;12.85;;;6.30;;
38909;SDS011;24676;51.360;12.354;2023-05-07T04:21:22;13.82;;;6.47;;
38909;SDS011;24676;51.360;12.354;2023-05-07T07:22:09;7.25;;;4.60;;
38909;SDS011;24676;51.360;12.354;2023-05-07T07:24:53;5.40;;;3.17;;
38909;SDS011;24676;51.360;12.354;2023-05-07T07:27:38;3.67;;;3.33;;
38909;SDS011;24676;51.360;12.354;2023-05-07T07:30:23;7.72;;;3.08;;
38909;SDS011;24676;51.360;12.354;2023-05-07T07:33:09;5.57;;;3.75;;
38909;SDS011;24676;51.360;12.354;2023-05-07T07:35:55;3.28;;;2.33;;
38909;SDS011;24676;51.360;12.354;2023-05-07T07:38:38;5.82;;;3.58;;
38909;SDS011;24676;51.360;12.354;2023-05-07T07:41:23;4.25;;;3.33;;
38909;SDS011;24676;51.360;12.354;2023-05-07T07:44:08;4.60;;;2.85;;
38909;SDS011;24676;51.360;12.354;2023-05-07T07:46:53;5.85;;;3.45;;
38909;SDS011;24676;51.360;12.354;2023-05-07T07:49:37;3.25;;;2.95;;
38909;SDS011;24676;51.360;12.354;2023-05-07T07:52:21;4.88;;;3.00;;
38909;SDS011;24676;51.360;12.354;2023-05-07T07:55:05;5.43;;;2.90;;
38909;SDS011;24676;51.360;12.354;2023-05-07T07:57:50;2.88;;;2.50;;
38909;SDS011;24676;51.360;12.354;2023-05-07T08:00:34;4.28;;;3.15;;
38909;SDS011;24676;51.360;12.354;2023-05-07T08:03:19;3.30;;;2.47;;
38909;SDS011;24676;51.360;12.354;2023-05-07T08:06:03;3.33;;;2.60;;
38909;SDS011;24676;51.360;12.354;2023-05-07T08:08:47;2.97;;;2.65;;
38909;SDS011;24676;51.360;12.354;2023-05-07T08:11:31;5.28;;;3.30;;
38909;SDS011;24676;51.360;12.354;2023-05-07T08:14:16;2.63;;;1.92;;
38909;SDS011;24676;51.360;12.354;2023-05-07T08:17:00;3.90;;;2.63;;
38909;SDS011;24676;51.360;12.354;2023-05-07T08:19:44;4.07;;;3.20;;
38909;SDS011;24676;51.360;12.354;2023-05-07T08:22:28;2.80;;;2.10;;
38909;SDS011;24676;51.360;12.354;2023-05-07T08:25:13;3.13;;;2.83;;
38909;SDS011;24676;51.360;12.354;2023-05-07T08:27:57;2.22;;;1.70;;
38909;SDS011;24676;51.360;12.354;2023-05-07T08:30:41;2.97;;;1.98;;
38909;SDS011;24676;51.360;12.354;2023-05-07T08:33:25;4.85;;;3.33;;
38909;SDS011;24676;51.360;12.354;2023-05-07T08:36:09;2.67;;;1.90;;
38909;SDS011;24676;51.360;12.354;2023-05-07T08:38:53;2.10;;;1.52;;
38909;SDS011;24676;51.360;12.354;2023-05-07T08:41:38;2.10;;;1.90;;
38909;SDS011;24676;51.360;12.354;2023-05-07T08:44:23;3.65;;;2.42;;
38909;SDS011;24676;51.360;12.354;2023-05-07T08:47:11;4.28;;;2.40;;
38909;SDS011;24676;51.360;12.354;2023-05-07T08:49:56;2.28;;;2.08;;
38909;SDS011;24676;51.360;12.354;2023-05-07T08:52:40;2.60;;;1.95;;
38909;SDS011;24676;51.360;12.354;2023-05-07T08:55:25;3.67;;;2.67;;
38909;SDS011;24676;51.360;12.354;2023-05-07T08:58:09;2.92;;;2.47;;
38909;SDS011;24676;51.360;12.354;2023-05-07T09:00:53;2.38;;;1.98;;
38909;SDS011;24676;51.360;12.354;2023-05-07T09:06:22;2.85;;;2.30;;
38909;SDS011;24676;51.360;12.354;2023-05-07T09:09:07;2.17;;;2.05;;
38909;SDS011;24676;51.360;12.354;2023-05-07T09:11:56;3.50;;;2.58;;
38909;SDS011;24676;51.360;12.354;2023-05-07T09:14:43;3.63;;;2.27;;
38909;SDS011;24676;51.360;12.354;2023-05-07T09:17:27;2.83;;;2.30;;
38909;SDS011;24676;51.360;12.354;2023-05-07T09:20:12;3.00;;;2.72;;
38909;SDS011;24676;51.360;12.354;2023-05-07T09:22:56;2.78;;;2.13;;
38909;SDS011;24676;51.360;12.354;2023-05-07T09:25:40;2.47;;;2.28;;
38909;SDS011;24676;51.360;12.354;2023-05-07T09:28:24;3.53;;;2.47;;
38909;SDS011;24676;51.360;12.354;2023-05-07T09:31:09;3.17;;;2.20;;
38909;SDS011;24676;51.360;12.354;2023-05-07T09:33:54;3.28;;;2.28;;
38909;SDS011;24676;51.360;12.354;2023-05-07T09:36:39;4.22;;;2.35;;
38909;SDS011;24676;51.360;12.354;2023-05-07T09:39:24;2.95;;;2.58;;
38909;SDS011;24676;51.360;12.354;2023-05-07T09:42:09;3.88;;;3.47;;
38909;SDS011;24676;51.360;12.354;2023-05-07T09:44:55;3.45;;;3.10;;
38909;SDS011;24676;51.360;12.354;2023-05-07T09:47:39;5.50;;;3.08;;
38909;SDS011;24676;51.360;12.354;2023-05-07T09:50:29;4.22;;;2.85;;
38909;SDS011;24676;51.360;12.354;2023-05-07T09:53:29;3.35;;;2.38;;
38909;SDS011;24676;51.360;12.354;2023-05-07T09:56:14;4.28;;;2.80;;
38909;SDS011;24676;51.360;12.354;2023-05-07T09:59:00;3.55;;;3.22;;
38909;SDS011;24676;51.360;12.354;2023-05-07T10:01:44;3.75;;;2.83;;
38909;SDS011;24676;51.360;12.354;2023-05-07T10:04:29;3.00;;;2.72;;
38909;SDS011;24676;51.360;12.354;2023-05-07T10:07:15;4.82;;;3.45;;
38909;SDS011;24676;51.360;12.354;2023-05-07T10:10:00;4.13;;;2.30;;
38909;SDS011;24676;51.360;12.354;2023-05-07T10:12:46;3.97;;;2.13;;
38909;SDS011;24676;51.360;12.354;2023-05-07T10:15:31;2.53;;;2.10;;
38909;SDS011;24676;51.360;12.354;2023-05-07T10:18:15;3.03;;;2.72;;
38909;SDS011;24676;51.360;12.354;2023-05-07T10:21:08;3.92;;;2.53;;
38909;SDS011;24676;51.360;12.354;2023-05-07T10:24:00;3.47;;;2.20;;
38909;SDS011;24676;51.360;12.354;2023-05-07T10:32:45;3.25;;;2.17;;
38909;SDS011;24676;51.360;12.354;2023-05-07T10:35:40;3.70;;;2.33;;
38909;SDS011;24676;51.360;12.354;2023-05-07T10:38:27;2.80;;;2.10;;
38909;SDS011;24676;51.360;12.354;2023-05-07T10:41:11;2.20;;;2.00;;
38909;SDS011;24676;51.360;12.354;2023-05-07T10:43:56;3.05;;;1.92;;
38909;SDS011;24676;51.360;12.354;2023-05-07T10:46:41;5.43;;;1.92;;
38909;SDS011;24676;51.360;12.354;2023-05-07T10:49:25;3.30;;;2.20;;
38909;SDS011;24676;51.360;12.354;2023-05-07T10:52:20;2.90;;;2.00;;
38909;SDS011;24676;51.360;12.354;2023-05-07T11:01:04;3.67;;;2.30;;
38909;SDS011;24676;51.360;12.354;2023-05-07T11:15:34;6.07;;;3.63;;
38909;SDS011;24676;51.360;12.354;2023-05-07T11:18:20;3.90;;;3.55;;
38909;SDS011;24676;51.360;12.354;2023-05-07T11:21:04;3.50;;;2.50;;
38909;SDS011;24676;51.360;12.354;2023-05-07T11:26:46;5.10;;;3.53;;
38909;SDS011;24676;51.360;12.354;2023-05-07T11:29:34;2.72;;;2.22;;
38909;SDS011;24676;51.360;12.354;2023-05-07T11:32:25;3.45;;;2.78;;
38909;SDS011;24676;51.360;12.354;2023-05-07T11:35:13;3.05;;;2.42;;
38909;SDS011;24676;51.360;12.354;2023-05-07T11:37:59;2.83;;;2.15;;
38909;SDS011;24676;51.360;12.354;2023-05-07T11:43:53;3.35;;;3.13;;
38909;SDS011;24676;51.360;12.354;2023-05-07T11:46:42;6.30;;;2.83;;
38909;SDS011;24676;51.360;12.354;2023-05-07T11:49:28;5.05;;;2.80;;
38909;SDS011;24676;51.360;12.354;2023-05-07T11:52:13;3.67;;;2.20;;
38909;SDS011;24676;51.360;12.354;2023-05-07T11:54:58;5.03;;;2.63;;
38909;SDS011;24676;51.360;12.354;2023-05-07T11:57:47;3.05;;;2.25;;
38909;SDS011;24676;51.360;12.354;2023-05-07T12:00:31;6.05;;;2.25;;
38909;SDS011;24676;51.360;12.354;2023-05-07T12:03:15;2.83;;;2.33;;
38909;SDS011;24676;51.360;12.354;2023-05-07T12:06:00;3.97;;;1.98;;
38909;SDS011;24676;51.360;12.354;2023-05-07T12:08:45;2.85;;;1.85;;
38909;SDS011;24676;51.360;12.354;2023-05-07T12:11:30;3.85;;;2.53;;
38909;SDS011;24676;51.360;12.354;2023-05-07T12:14:14;4.10;;;2.70;;
38909;SDS011;24676;51.360;12.354;2023-05-07T12:17:00;5.65;;;3.13;;
38909;SDS011;24676;51.360;12.354;2023-05-07T12:19:48;6.50;;;2.55;;
38909;SDS011;24676;51.360;12.354;2023-05-07T12:22:33;2.95;;;2.42;;
38909;SDS011;24676;51.360;12.354;2023-05-07T12:25:18;3.17;;;2.55;;
38909;SDS011;24676;51.360;12.354;2023-05-07T12:28:03;2.25;;;2.00;;
38909;SDS011;24676;51.360;12.354;2023-05-07T12:30:49;2.92;;;2.60;;
38909;SDS011;24676;51.360;12.354;2023-05-07T12:33:35;2.55;;;2.08;;
38909;SDS011;24676;51.360;12.354;2023-05-07T12:36:20;4.97;;;3.13;;
38909;SDS011;24676;51.360;12.354;2023-05-07T12:39:05;3.30;;;2.65;;
38909;SDS011;24676;51.360;12.354;2023-05-07T12:41:52;5.55;;;3.13;;
38909;SDS011;24676;51.360;12.354;2023-05-07T12:44:38;3.50;;;2.70;;
38909;SDS011;24676;51.360;12.354;2023-05-07T12:47:22;5.25;;;2.72;;
38909;SDS011;24676;51.360;12.354;2023-05-07T12:50:07;2.83;;;2.50;;
38909;SDS011;24676;51.360;12.354;2023-05-07T12:52:51;2.00;;;1.90;;
38909;SDS011;24676;51.360;12.354;2023-05-07T12:55:45;3.35;;;2.13;;
38909;SDS011;24676;51.360;12.354;2023-05-07T12:58:35;2.90;;;2.70;;
38909;SDS011;24676;51.360;12.354;2023-05-07T13:01:19;1.77;;;1.67;;
38909;SDS011;24676;51.360;12.354;2023-05-07T13:04:05;2.83;;;2.47;;
38909;SDS011;24676;51.360;12.354;2023-05-07T13:06:49;7.40;;;2.50;;
38909;SDS011;24676;51.360;12.354;2023-05-07T13:09:33;3.97;;;1.92;;
38909;SDS011;24676;51.360;12.354;2023-05-07T13:12:18;4.90;;;3.13;;
38909;SDS011;24676;51.360;12.354;2023-05-07T13:15:01;3.63;;;1.88;;
38909;SDS011;24676;51.360;12.354;2023-05-07T13:17:46;2.25;;;1.75;;
38909;SDS011;24676;51.360;12.354;2023-05-07T13:20:31;2.45;;;2.17;;
38909;SDS011;24676;51.360;12.354;2023-05-07T13:23:15;1.50;;;1.40;;
38909;SDS011;24676;51.360;12.354;2023-05-07T13:25:59;2.70;;;1.83;;
38909;SDS011;24676;51.360;12.354;2023-05-07T13:28:44;2.42;;;2.17;;
38909;SDS011;24676;51.360;12.354;2023-05-07T13:31:28;2.08;;;1.85;;
38909;SDS011;24676;51.360;12.354;2023-05-07T13:34:12;1.98;;;1.83;;
38909;SDS011;24676;51.360;12.354;2023-05-07T13:36:56;2.78;;;2.50;;
38909;SDS011;24676;51.360;12.354;2023-05-07T13:39:41;2.42;;;1.52;;
38909;SDS011;24676;51.360;12.354;2023-05-07T13:42:25;2.47;;;2.10;;
38909;SDS011;24676;51.360;12.354;2023-05-07T13:45:09;2.10;;;1.98;;
38909;SDS011;24676;51.360;12.354;2023-05-07T13:47:54;2.40;;;1.23;;
38909;SDS011;24676;51.360;12.354;2023-05-07T13:50:39;2.25;;;2.05;;
38909;SDS011;24676;51.360;12.354;2023-05-07T13:53:23;1.38;;;1.27;;
38909;SDS011;24676;51.360;12.354;2023-05-07T13:56:08;2.42;;;2.00;;
38909;SDS011;24676;51.360;12.354;2023-05-07T13:58:52;2.10;;;1.67;;
38909;SDS011;24676;51.360;12.354;2023-05-07T14:01:37;2.50;;;2.00;;
38909;SDS011;24676;51.360;12.354;2023-05-07T14:04:21;2.55;;;1.88;;
38909;SDS011;24676;51.360;12.354;2023-05-07T14:07:06;1.50;;;1.38;;
38909;SDS011;24676;51.360;12.354;2023-05-07T14:09:50;2.25;;;1.70;;
38909;SDS011;24676;51.360;12.354;2023-05-07T14:12:34;1.83;;;1.65;;
38909;SDS011;24676;51.360;12.354;2023-05-07T14:15:18;2.03;;;1.48;;
38909;SDS011;24676;51.360;12.354;2023-05-07T14:18:02;1.60;;;1.50;;
38909;SDS011;24676;51.360;12.354;2023-05-07T14:20:47;4.95;;;2.72;;
38909;SDS011;24676;51.360;12.354;2023-05-07T14:23:32;1.52;;;1.42;;
38909;SDS011;24676;51.360;12.354;2023-05-07T14:26:17;1.45;;;1.35;;
38909;SDS011;24676;51.360;12.354;2023-05-07T14:29:01;1.52;;;1.17;;
38909;SDS011;24676;51.360;12.354;2023-05-07T14:31:46;1.10;;;1.02;;
38909;SDS011;24676;51.360;12.354;2023-05-07T14:34:31;1.33;;;1.23;;
38909;SDS011;24676;51.360;12.354;2023-05-07T14:37:16;1.20;;;1.10;;
38909;SDS011;24676;51.360;12.354;2023-05-07T14:40:01;1.40;;;1.30;;
38909;SDS011;24676;51.360;12.354;2023-05-07T14:42:46;1.42;;;1.23;;
38909;SDS011;24676;51.360;12.354;2023-05-07T14:45:30;2.58;;;1.33;;
38909;SDS011;24676;51.360;12.354;2023-05-07T14:48:15;1.00;;;0.90;;
38909;SDS011;24676;51.360;12.354;2023-05-07T14:50:59;1.13;;;0.60;;
38909;SDS011;24676;51.360;12.354;2023-05-07T14:53:43;2.22;;;1.77;;
38909;SDS011;24676;51.360;12.354;2023-05-07T14:56:28;2.40;;;1.35;;
38909;SDS011;24676;51.360;12.354;2023-05-07T14:59:13;1.95;;;1.42;;
38909;SDS011;24676;51.360;12.354;2023-05-07T15:01:59;1.45;;;1.27;;
38909;SDS011;24676;51.360;12.354;2023-05-07T15:04:44;1.48;;;1.38;;
38909;SDS011;24676;51.360;12.354;2023-05-07T15:07:32;2.15;;;1.42;;
38909;SDS011;24676;51.360;12.354;2023-05-07T15:10:17;1.27;;;1.17;;
38909;SDS011;24676;51.360;12.354;2023-05-07T15:13:02;2.72;;;1.20;;
38909;SDS011;24676;51.360;12.354;2023-05-07T15:15:46;2.28;;;1.02;;
38909;SDS011;24676;51.360;12.354;2023-05-07T15:18:31;2.90;;;0.77;;
38909;SDS011;24676;51.360;12.354;2023-05-07T15:21:16;0.90;;;0.90;;
38909;SDS011;24676;51.360;12.354;2023-05-07T15:24:01;1.48;;;1.38;;
38909;SDS011;24676;51.360;12.354;2023-05-07T15:26:46;2.10;;;1.08;;
38909;SDS011;24676;51.360;12.354;2023-05-07T15:29:30;1.50;;;1.40;;
38909;SDS011;24676;51.360;12.354;2023-05-07T15:32:16;1.02;;;0.82;;
38909;SDS011;24676;51.360;12.354;2023-05-07T15:35:00;2.97;;;1.50;;
38909;SDS011;24676;51.360;12.354;2023-05-07T15:37:44;1.58;;;1.33;;
38909;SDS011;24676;51.360;12.354;2023-05-07T15:40:32;2.47;;;1.83;;
38909;SDS011;24676;51.360;12.354;2023-05-07T15:43:18;1.92;;;1.20;;
38909;SDS011;24676;51.360;12.354;2023-05-07T15:46:03;1.83;;;1.70;;
38909;SDS011;24676;51.360;12.354;2023-05-07T15:48:47;3.05;;;1.85;;
38909;SDS011;24676;51.360;12.354;2023-05-07T15:51:34;1.95;;;1.83;;
38909;SDS011;24676;51.360;12.354;2023-05-07T15:54:19;1.70;;;1.60;;
38909;SDS011;24676;51.360;12.354;2023-05-07T15:57:04;1.65;;;1.40;;
38909;SDS011;24676;51.360;12.354;2023-05-07T15:59:49;2.67;;;1.30;;
38909;SDS011;24676;51.360;12.354;2023-05-07T16:02:33;2.60;;;1.67;;
38909;SDS011;24676;51.360;12.354;2023-05-07T16:08:03;2.50;;;2.00;;
38909;SDS011;24676;51.360;12.354;2023-05-07T16:13:32;3.03;;;1.87;;
38909;SDS011;24676;51.360;12.354;2023-05-07T16:16:17;2.67;;;2.30;;
38909;SDS011;24676;51.360;12.354;2023-05-07T16:19:01;1.30;;;1.20;;
38909;SDS011;24676;51.360;12.354;2023-05-07T16:21:46;2.60;;;2.00;;
38909;SDS011;24676;51.360;12.354;2023-05-07T16:24:30;2.28;;;2.15;;
38909;SDS011;24676;51.360;12.354;2023-05-07T16:27:15;1.85;;;1.70;;
38909;SDS011;24676;51.360;12.354;2023-05-07T16:29:59;3.67;;;1.70;;
38909;SDS011;24676;51.360;12.354;2023-05-07T16:32:43;5.30;;;2.50;;
38909;SDS011;24676;51.360;12.354;2023-05-07T16:40:56;2.40;;;2.20;;
38909;SDS011;24676;51.360;12.354;2023-05-07T16:43:40;2.53;;;2.33;;
38909;SDS011;24676;51.360;12.354;2023-05-07T16:46:25;4.13;;;2.40;;
38909;SDS011;24676;51.360;12.354;2023-05-07T16:49:09;5.50;;;2.85;;
38909;SDS011;24676;51.360;12.354;2023-05-07T16:51:54;3.90;;;2.38;;
38909;SDS011;24676;51.360;12.354;2023-05-07T16:54:39;2.53;;;1.90;;
38909;SDS011;24676;51.360;12.354;2023-05-07T16:57:23;2.63;;;2.40;;
38909;SDS011;24676;51.360;12.354;2023-05-07T17:00:08;2.97;;;2.28;;
38909;SDS011;24676;51.360;12.354;2023-05-07T17:02:53;2.15;;;2.03;;
38909;SDS011;24676;51.360;12.354;2023-05-07T17:05:38;3.22;;;2.50;;
38909;SDS011;24676;51.360;12.354;2023-05-07T17:08:22;5.20;;;2.25;;
38909;SDS011;24676;51.360;12.354;2023-05-07T17:11:07;3.45;;;2.40;;
38909;SDS011;24676;51.360;12.354;2023-05-07T17:13:51;3.28;;;2.22;;
38909;SDS011;24676;51.360;12.354;2023-05-07T17:16:35;2.28;;;1.88;;
38909;SDS011;24676;51.360;12.354;2023-05-07T17:19:20;4.28;;;2.53;;
38909;SDS011;24676;51.360;12.354;2023-05-07T17:22:04;1.33;;;1.23;;
38909;SDS011;24676;51.360;12.354;2023-05-07T17:24:48;3.08;;;1.98;;
38909;SDS011;24676;51.360;12.354;2023-05-07T17:27:32;1.70;;;1.60;;
38909;SDS011;24676;51.360;12.354;2023-05-07T17:30:17;3.72;;;2.67;;
38909;SDS011;24676;51.360;12.354;2023-05-07T17:33:01;3.25;;;2.67;;
38909;SDS011;24676;51.360;12.354;2023-05-07T17:35:46;2.80;;;1.83;;
38909;SDS011;24676;51.360;12.354;2023-05-07T17:38:30;3.33;;;2.58;;
38909;SDS011;24676;51.360;12.354;2023-05-07T17:41:15;4.05;;;3.08;;
38909;SDS011;24676;51.360;12.354;2023-05-07T17:43:59;3.60;;;2.30;;
38909;SDS011;24676;51.360;12.354;2023-05-07T17:46:43;3.97;;;2.15;;
38909;SDS011;24676;51.360;12.354;2023-05-07T17:49:27;3.72;;;2.83;;
38909;SDS011;24676;51.360;12.354;2023-05-07T17:52:11;2.60;;;2.22;;
38909;SDS011;24676;51.360;12.354;2023-05-07T17:54:56;4.47;;;2.70;;
38909;SDS011;24676;51.360;12.354;2023-05-07T17:57:40;2.35;;;1.95;;
38909;SDS011;24676;51.360;12.354;2023-05-07T18:00:25;2.67;;;2.47;;
38909;SDS011;24676;51.360;12.354;2023-05-07T18:08:37;4.78;;;3.45;;
38909;SDS011;24676;51.360;12.354;2023-05-07T18:11:22;5.25;;;1.73;;
38909;SDS011;24676;51.360;12.354;2023-05-07T18:14:07;2.33;;;2.08;;
38909;SDS011;24676;51.360;12.354;2023-05-07T18:16:51;4.72;;;2.97;;
38909;SDS011;24676;51.360;12.354;2023-05-07T18:19:36;3.10;;;1.75;;
38909;SDS011;24676;51.360;12.354;2023-05-07T18:22:21;2.05;;;1.88;;
38909;SDS011;24676;51.360;12.354;2023-05-07T18:25:05;3.35;;;2.03;;
38909;SDS011;24676;51.360;12.354;2023-05-07T18:27:50;1.67;;;1.48;;
38909;SDS011;24676;51.360;12.354;2023-05-07T18:30:34;1.80;;;1.70;;
38909;SDS011;24676;51.360;12.354;2023-05-07T18:33:18;3.63;;;2.28;;
38909;SDS011;24676;51.360;12.354;2023-05-07T18:36:03;3.92;;;2.17;;
38909;SDS011;24676;51.360;12.354;2023-05-07T18:38:47;3.95;;;2.75;;
38909;SDS011;24676;51.360;12.354;2023-05-07T18:41:32;6.43;;;2.03;;
38909;SDS011;24676;51.360;12.354;2023-05-07T18:44:16;5.18;;;2.75;;
38909;SDS011;24676;51.360;12.354;2023-05-07T18:47:01;3.85;;;2.40;;
38909;SDS011;24676;51.360;12.354;2023-05-07T18:49:45;2.53;;;1.95;;
38909;SDS011;24676;51.360;12.354;2023-05-07T18:52:30;2.40;;;1.98;;
38909;SDS011;24676;51.360;12.354;2023-05-07T18:55:14;3.20;;;2.90;;
38909;SDS011;24676;51.360;12.354;2023-05-07T18:57:59;4.50;;;3.28;;
38909;SDS011;24676;51.360;12.354;2023-05-07T19:00:45;3.97;;;2.78;;
38909;SDS011;24676;51.360;12.354;2023-05-07T19:03:34;3.35;;;2.90;;
38909;SDS011;24676;51.360;12.354;2023-05-07T19:06:19;3.10;;;2.17;;
38909;SDS011;24676;51.360;12.354;2023-05-07T19:09:03;4.05;;;2.47;;
38909;SDS011;24676;51.360;12.354;2023-05-07T19:11:47;2.80;;;2.40;;
38909;SDS011;24676;51.360;12.354;2023-05-07T19:14:31;3.15;;;2.03;;
38909;SDS011;24676;51.360;12.354;2023-05-07T19:17:17;2.95;;;2.38;;
38909;SDS011;24676;51.360;12.354;2023-05-07T19:20:01;3.35;;;2.10;;
38909;SDS011;24676;51.360;12.354;2023-05-07T19:22:47;5.53;;;2.63;;
38909;SDS011;24676;51.360;12.354;2023-05-07T19:25:31;2.35;;;1.90;;
38909;SDS011;24676;51.360;12.354;2023-05-07T19:28:15;2.88;;;2.63;;
38909;SDS011;24676;51.360;12.354;2023-05-07T19:30:59;3.30;;;2.53;;
38909;SDS011;24676;51.360;12.354;2023-05-07T19:33:43;3.53;;;3.20;;
38909;SDS011;24676;51.360;12.354;2023-05-07T19:36:28;3.47;;;2.88;;
38909;SDS011;24676;51.360;12.354;2023-05-07T19:39:12;2.72;;;1.90;;
38909;SDS011;24676;51.360;12.354;2023-05-07T19:41:57;3.15;;;2.25;;
38909;SDS011;24676;51.360;12.354;2023-05-07T19:44:49;2.92;;;2.33;;
38909;SDS011;24676;51.360;12.354;2023-05-07T19:47:33;3.13;;;2.45;;
38909;SDS011;24676;51.360;12.354;2023-05-07T19:50:18;2.25;;;1.85;;
38909;SDS011;24676;51.360;12.354;2023-05-07T19:53:03;3.15;;;2.40;;
38909;SDS011;24676;51.360;12.354;2023-05-07T19:55:47;3.33;;;2.58;;
38909;SDS011;24676;51.360;12.354;2023-05-07T19:58:32;3.20;;;2.70;;
38909;SDS011;24676;51.360;12.354;2023-05-07T20:01:17;3.13;;;2.13;;
38909;SDS011;24676;51.360;12.354;2023-05-07T20:04:01;4.93;;;2.08;;
38909;SDS011;24676;51.360;12.354;2023-05-07T20:06:46;3.83;;;3.05;;
38909;SDS011;24676;51.360;12.354;2023-05-07T20:09:30;3.50;;;2.10;;
38909;SDS011;24676;51.360;12.354;2023-05-07T20:12:15;4.00;;;2.30;;
38909;SDS011;24676;51.360;12.354;2023-05-07T20:15:00;3.47;;;2.10;;
38909;SDS011;24676;51.360;12.354;2023-05-07T20:17:45;2.47;;;2.20;;
38909;SDS011;24676;51.360;12.354;2023-05-07T20:25:58;4.55;;;2.25;;
38909;SDS011;24676;51.360;12.354;2023-05-07T20:28:42;1.75;;;1.60;;
38909;SDS011;24676;51.360;12.354;2023-05-07T20:31:27;3.20;;;2.67;;
38909;SDS011;24676;51.360;12.354;2023-05-07T20:34:11;2.20;;;1.75;;
38909;SDS011;24676;51.360;12.354;2023-05-07T20:36:56;3.03;;;2.28;;
38909;SDS011;24676;51.360;12.354;2023-05-07T20:39:41;5.47;;;2.92;;
38909;SDS011;24676;51.360;12.354;2023-05-07T20:42:26;2.85;;;2.45;;
38909;SDS011;24676;51.360;12.354;2023-05-07T20:45:10;5.82;;;2.50;;
38909;SDS011;24676;51.360;12.354;2023-05-07T20:47:55;2.72;;;2.53;;
38909;SDS011;24676;51.360;12.354;2023-05-07T20:50:39;2.90;;;2.10;;
38909;SDS011;24676;51.360;12.354;2023-05-07T20:53:23;4.57;;;2.90;;
38909;SDS011;24676;51.360;12.354;2023-05-07T20:56:08;2.42;;;2.22;;
38909;SDS011;24676;51.360;12.354;2023-05-07T20:58:52;3.17;;;2.65;;
38909;SDS011;24676;51.360;12.354;2023-05-07T21:01:36;2.33;;;2.03;;
38909;SDS011;24676;51.360;12.354;2023-05-07T21:04:22;2.42;;;2.08;;
38909;SDS011;24676;51.360;12.354;2023-05-07T21:07:06;4.88;;;3.47;;
38909;SDS011;24676;51.360;12.354;2023-05-07T21:09:51;2.60;;;2.40;;
38909;SDS011;24676;51.360;12.354;2023-05-07T21:12:35;4.80;;;3.40;;
38909;SDS011;24676;51.360;12.354;2023-05-07T21:15:20;3.28;;;2.65;;
38909;SDS011;24676;51.360;12.354;2023-05-07T21:18:04;5.07;;;3.20;;
38909;SDS011;24676;51.360;12.354;2023-05-07T21:20:48;4.90;;;3.42;;
38909;SDS011;24676;51.360;12.354;2023-05-07T21:23:33;3.72;;;3.00;;
38909;SDS011;24676;51.360;12.354;2023-05-07T21:26:17;4.07;;;3.65;;
38909;SDS011;24676;51.360;12.354;2023-05-07T21:29:02;4.85;;;3.08;;
38909;SDS011;24676;51.360;12.354;2023-05-07T21:31:47;4.88;;;3.15;;
38909;SDS011;24676;51.360;12.354;2023-05-07T21:34:32;4.65;;;2.42;;
38909;SDS011;24676;51.360;12.354;2023-05-07T21:37:16;6.35;;;2.58;;
38909;SDS011;24676;51.360;12.354;2023-05-07T21:40:00;2.85;;;2.28;;
38909;SDS011;24676;51.360;12.354;2023-05-07T21:42:45;4.15;;;3.33;;
38909;SDS011;24676;51.360;12.354;2023-05-07T21:45:29;4.20;;;3.50;;
38909;SDS011;24676;51.360;12.354;2023-05-07T21:48:13;2.75;;;2.50;;
38909;SDS011;24676;51.360;12.354;2023-05-07T21:51:04;3.22;;;2.90;;
38909;SDS011;24676;51.360;12.354;2023-05-07T21:53:50;3.60;;;2.38;;
38909;SDS011;24676;51.360;12.354;2023-05-07T21:56:34;3.88;;;2.25;;
38909;SDS011;24676;51.360;12.354;2023-05-07T21:59:18;3.30;;;2.83;;
38909;SDS011;24676;51.360;12.354;2023-05-07T22:02:02;5.38;;;2.15;;
38909;SDS011;24676;51.360;12.354;2023-05-07T22:04:47;5.07;;;3.40;;
38909;SDS011;24676;51.360;12.354;2023-05-07T22:07:31;4.93;;;3.10;;
38909;SDS011;24676;51.360;12.354;2023-05-07T22:10:15;4.55;;;3.15;;
38909;SDS011;24676;51.360;12.354;2023-05-07T22:13:04;3.38;;;2.63;;
38909;SDS011;24676;51.360;12.354;2023-05-07T22:15:48;4.88;;;3.15;;
38909;SDS011;24676;51.360;12.354;2023-05-07T22:18:33;3.28;;;2.88;;
38909;SDS011;24676;51.360;12.354;2023-05-07T22:21:17;4.32;;;2.85;;
38909;SDS011;24676;51.360;12.354;2023-05-07T22:24:02;3.17;;;2.70;;
38909;SDS011;24676;51.360;12.354;2023-05-07T22:26:49;4.93;;;3.33;;
38909;SDS011;24676;51.360;12.354;2023-05-07T22:29:34;3.28;;;2.20;;
38909;SDS011;24676;51.360;12.354;2023-05-07T22:32:18;3.85;;;2.80;;
38909;SDS011;24676;51.360;12.354;2023-05-07T22:35:05;2.63;;;2.28;;
38909;SDS011;24676;51.360;12.354;2023-05-07T22:37:50;4.03;;;2.30;;
38909;SDS011;24676;51.360;12.354;2023-05-07T22:40:34;3.22;;;3.03;;
38909;SDS011;24676;51.360;12.354;2023-05-07T22:43:19;5.03;;;3.53;;
38909;SDS011;24676;51.360;12.354;2023-05-07T22:46:03;2.67;;;2.30;;
38909;SDS011;24676;51.360;12.354;2023-05-07T22:48:47;3.67;;;2.70;;
38909;SDS011;24676;51.360;12.354;2023-05-07T22:51:31;2.58;;;2.38;;
38909;SDS011;24676;51.360;12.354;2023-05-07T22:54:15;2.75;;;1.88;;
38909;SDS011;24676;51.360;12.354;2023-05-07T22:56:59;2.63;;;1.77;;
38909;SDS011;24676;51.360;12.354;2023-05-07T22:59:43;5.53;;;2.85;;
38909;SDS011;24676;51.360;12.354;2023-05-07T23:02:28;8.48;;;3.78;;
38909;SDS011;24676;51.360;12.354;2023-05-07T23:05:12;2.13;;;1.88;;